Time;durP1;ratioP1;P1;durP2;ratioP2;P2;SDS_P1;SDS_P2;PMS_P1;PMS_P2;Temp;Humidity;BMP_temperature;BMP_pressure;BME280_temperature;BME280_humidity;BME280_pressure;Samples;Min_cycle;Max_cycle;Signal;HPM_P1;HPM_P2
2023/09/04 00:00:20;;;;;;;0.45;0.45;;;14.30;99.90;;;;;;5093578;28;20403;-62
2023/09/04 00:02:47;;;;;;;;;;;14.00;99.90;;;;;;5093739;28;20455;-62
2023/09/04 00:05:13;;;;;;;0.17;0.17;;;14.10;99.90;;;;;;5093673;28;19965;-63
2023/09/04 00:07:39;;;;;;;0.20;0.20;;;13.60;99.90;;;;;;5093444;28;20097;-62
2023/09/04 00:10:04;;;;;;;;;;;13.60;99.90;;;;;;5094131;28;20095;-62
2023/09/04 00:12:30;;;;;;;0.10;0.10;;;13.80;99.90;;;;;;5093587;28;19924;-63
2023/09/04 00:14:56;;;;;;;;;;;13.60;99.90;;;;;;5093990;28;20086;-62
2023/09/04 00:17:21;;;;;;;0.38;0.30;;;13.60;99.90;;;;;;5093488;28;19950;-63
2023/09/04 00:19:47;;;;;;;;;;;13.70;99.90;;;;;;5093787;28;20052;-63
2023/09/04 00:22:13;;;;;;;0.20;0.20;;;14.00;99.90;;;;;;5093271;28;20299;-62
2023/09/04 00:24:38;;;;;;;;;;;14.10;99.90;;;;;;5093109;28;20120;-62
2023/09/04 00:27:04;;;;;;;0.10;0.10;;;14.40;99.90;;;;;;5092778;28;19931;-62
2023/09/04 00:29:30;;;;;;;;;;;14.20;99.90;;;;;;5093572;28;20126;-62
2023/09/04 00:31:55;;;;;;;0.10;0.10;;;14.10;99.90;;;;;;5092837;28;20018;-62
2023/09/04 00:34:21;;;;;;;;;;;14.10;99.90;;;;;;5093455;28;20048;-63
2023/09/04 00:36:46;;;;;;;0.32;0.32;;;13.80;99.90;;;;;;5093092;28;19927;-62
2023/09/04 00:39:12;;;;;;;;;;;14.10;99.90;;;;;;5093403;28;20044;-62
2023/09/04 00:41:37;;;;;;;0.10;0.10;;;14.10;99.90;;;;;;5092922;28;19924;-62
2023/09/04 00:44:03;;;;;;;;;;;14.10;99.90;;;;;;5093298;28;20062;-63
2023/09/04 00:46:29;;;;;;;0.28;0.25;;;14.10;99.90;;;;;;5092872;28;19926;-61
2023/09/04 00:48:55;;;;;;;0.28;0.28;;;14.00;99.90;;;;;;5092811;28;20079;-62
2023/09/04 00:51:20;;;;;;;;;;;13.90;99.90;;;;;;5093175;28;20458;-62
2023/09/04 00:53:48;;;;;;;0.30;0.30;;;14.10;99.90;;;;;;5092791;28;19920;-62
2023/09/04 00:56:14;;;;;;;0.45;0.45;;;13.90;99.90;;;;;;5091317;28;20055;-62
2023/09/04 00:58:40;;;;;;;0.30;0.30;;;13.50;99.90;;;;;;5092560;28;20050;-62
2023/09/04 01:01:06;;;;;;;;;;;13.70;99.90;;;;;;5092901;28;20434;-62
2023/09/04 01:03:32;;;;;;;0.20;0.20;;;13.90;99.90;;;;;;5092564;28;19920;-62
2023/09/04 01:05:58;;;;;;;;;;;13.80;99.90;;;;;;5093000;28;20101;-62
2023/09/04 01:08:24;;;;;;;0.20;0.20;;;14.10;99.90;;;;;;5092434;28;19924;-62
2023/09/04 01:11:10;;;;;;;0.30;0.30;;;13.50;99.90;;;;;;5092397;28;20052;-61
2023/09/04 01:13:50;;;;;;;0.17;0.17;;;13.80;99.90;;;;;;5092453;28;20048;-62
2023/09/04 01:16:17;;;;;;;0.20;0.20;;;14.10;99.90;;;;;;5092345;28;20094;-62
2023/09/04 01:18:43;;;;;;;0.32;0.32;;;13.90;99.90;;;;;;5092242;28;20062;-62
2023/09/04 01:21:09;;;;;;;;;;;13.90;99.90;;;;;;5092629;28;20096;-61
2023/09/04 01:23:35;;;;;;;0.52;0.50;;;14.30;99.90;;;;;;5092387;28;19924;-62
2023/09/04 01:26:14;;;;;;;0.20;0.20;;;14.10;99.90;;;;;;5092189;28;20514;-62
2023/09/04 01:28:58;;;;;;;0.20;0.20;;;14.30;99.90;;;;;;5092332;28;20047;-62
2023/09/04 01:31:29;;;;;;;0.65;0.20;;;14.00;99.90;;;;;;5092454;28;20140;-62
2023/09/04 01:34:11;;;;;;;0.20;0.20;;;14.30;99.90;;;;;;5091929;28;20052;-62
2023/09/04 01:36:39;;;;;;;0.30;0.30;;;14.50;99.90;;;;;;5090602;28;20048;-62
2023/09/04 01:39:06;;;;;;;0.80;0.52;;;14.50;99.90;;;;;;5091739;28;20602;-61
2023/09/04 01:41:31;;;;;;;1.55;0.50;;;14.10;99.90;;;;;;5091588;28;20514;-62
2023/09/04 01:43:57;;;;;;;0.50;0.50;;;14.30;99.90;;;;;;5090647;28;20044;-62
2023/09/04 01:46:23;;;;;;;0.85;0.50;;;14.50;99.90;;;;;;5091810;28;20051;-62
2023/09/04 01:48:49;;;;;;;;;;;14.20;99.90;;;;;;5092250;28;20113;-61
2023/09/04 01:51:15;;;;;;;0.32;0.30;;;14.50;99.90;;;;;;5091744;28;20070;-62
2023/09/04 01:53:41;;;;;;;;;;;14.20;99.90;;;;;;5092209;28;20044;-62
2023/09/04 01:56:07;;;;;;;0.55;0.47;;;14.40;99.90;;;;;;5091741;28;19942;-62
2023/09/04 01:58:33;;;;;;;;;;;14.40;99.90;;;;;;5092064;28;20052;-62
2023/09/04 02:00:58;;;;;;;0.20;0.20;;;14.30;99.90;;;;;;5091648;28;19920;-62
2023/09/04 02:03:24;;;;;;;0.30;0.30;;;14.30;99.90;;;;;;5091458;28;20052;-62
2023/09/04 02:05:50;;;;;;;0.25;0.25;;;14.30;99.90;;;;;;5090395;28;20118;-62
2023/09/04 02:08:15;;;;;;;;;;;14.00;99.90;;;;;;5092328;28;20135;-62
2023/09/04 02:10:41;;;;;;;0.15;0.15;;;14.10;99.90;;;;;;5091572;28;19924;-62
2023/09/04 02:13:07;;;;;;;0.43;0.43;;;14.30;99.90;;;;;;5091573;28;20040;-62
2023/09/04 02:15:35;;;;;;;0.40;0.40;;;14.10;99.90;;;;;;5091257;28;20048;-62
2023/09/04 02:18:02;;;;;;;0.13;0.13;;;14.20;99.90;;;;;;5091500;28;20102;-62
2023/09/04 02:20:29;;;;;;;0.20;0.20;;;14.00;99.90;;;;;;5091497;28;20048;-62
2023/09/04 02:22:54;;;;;;;0.63;0.63;;;14.50;99.90;;;;;;5091375;28;20044;-62
2023/09/04 02:25:20;;;;;;;4.10;0.82;;;14.30;99.90;;;;;;5091319;28;20108;-62
2023/09/04 02:27:46;;;;;;;;;;;14.30;99.90;;;;;;5091585;28;20091;-62
2023/09/04 02:30:11;;;;;;;0.32;0.32;;;14.10;99.90;;;;;;5091384;28;19924;-62
2023/09/04 02:32:37;;;;;;;;;;;14.20;99.90;;;;;;5090809;28;20040;-62
2023/09/04 02:35:03;;;;;;;0.40;0.40;;;14.10;99.90;;;;;;5091436;28;19983;-62
2023/09/04 02:37:29;;;;;;;0.47;0.47;;;14.10;99.90;;;;;;5091356;28;20472;-61
2023/09/04 02:39:55;;;;;;;0.30;0.28;;;14.10;99.90;;;;;;5091561;28;20063;-61
2023/09/04 02:42:20;;;;;;;;;;;13.90;99.90;;;;;;5091910;28;20091;-62
2023/09/04 02:44:46;;;;;;;0.20;0.20;;;13.40;99.90;;;;;;5091613;28;19920;-62
2023/09/04 02:47:11;;;;;;;0.50;0.50;;;13.60;99.90;;;;;;5091563;28;20499;-61
2023/09/04 02:49:37;;;;;;;;;;;13.70;99.90;;;;;;5094325;28;20479;-62
2023/09/04 02:52:03;;;;;;;0.80;0.40;;;13.70;99.90;;;;;;5095117;28;20403;-62
2023/09/04 02:54:30;;;;;;;0.45;0.45;;;13.60;99.90;;;;;;5095055;28;20052;-61
2023/09/04 02:56:56;;;;;;;0.20;0.20;;;13.20;99.90;;;;;;5094635;28;20055;-62
2023/09/04 02:59:21;;;;;;;0.20;0.20;;;13.60;99.90;;;;;;5094864;28;20056;-62
2023/09/04 03:01:50;;;;;;;;;;;13.40;99.90;;;;;;5095039;28;20105;-62
2023/09/04 03:04:16;;;;;;;0.45;0.45;;;13.10;99.90;;;;;;5094509;28;20433;-62
2023/09/04 03:06:42;;;;;;;0.30;0.30;;;13.60;99.90;;;;;;5094914;28;20051;-61
2023/09/04 03:09:08;;;;;;;0.30;0.30;;;13.20;99.90;;;;;;5094776;28;20110;-62
2023/09/04 03:11:33;;;;;;;0.38;0.38;;;12.90;99.90;;;;;;5094705;28;20047;-61
2023/09/04 03:13:59;;;;;;;0.35;0.35;;;13.10;99.90;;;;;;5094703;28;20056;-61
2023/09/04 03:16:25;;;;;;;;;;;12.60;99.90;;;;;;5095048;28;20058;-61
2023/09/04 03:18:51;;;;;;;0.45;0.43;;;12.40;99.90;;;;;;5094572;28;19920;-61
2023/09/04 03:21:16;;;;;;;0.20;0.20;;;12.40;99.90;;;;;;5094420;28;20039;-62
2023/09/04 03:23:42;;;;;;;1.45;0.65;;;12.50;99.90;;;;;;5094746;28;20144;-61
2023/09/04 03:26:08;;;;;;;0.55;0.47;;;12.30;99.90;;;;;;5093655;28;20047;-61
2023/09/04 03:28:33;;;;;;;;;;;12.20;99.90;;;;;;5095142;28;20044;-61
2023/09/04 03:30:59;;;;;;;0.20;0.20;;;12.50;99.90;;;;;;5094330;28;20014;-62
2023/09/04 03:33:24;;;;;;;0.20;0.20;;;12.20;99.90;;;;;;5094589;28;20047;-62
2023/09/04 03:35:50;;;;;;;0.70;0.50;;;11.60;99.90;;;;;;5094273;28;20047;-61
2023/09/04 03:38:16;;;;;;;0.10;0.10;;;12.00;99.90;;;;;;5093730;28;20044;-62
2023/09/04 03:40:41;;;;;;;0.30;0.30;;;11.90;99.90;;;;;;5094254;28;20052;-61
2023/09/04 03:43:07;;;;;;;0.20;0.20;;;12.00;99.90;;;;;;5093988;28;20059;-61
2023/09/04 03:45:34;;;;;;;0.30;0.30;;;11.70;99.90;;;;;;5094062;28;20050;-62
2023/09/04 03:48:01;;;;;;;0.30;0.30;;;11.70;99.90;;;;;;5093973;28;20064;-61
2023/09/04 03:50:27;;;;;;;0.22;0.22;;;11.70;99.90;;;;;;5092939;28;20080;-61
2023/09/04 03:52:53;;;;;;;0.20;0.20;;;12.10;99.90;;;;;;5093968;28;20102;-61
2023/09/04 03:55:19;;;;;;;0.20;0.20;;;12.20;99.90;;;;;;5093877;28;20505;-62
2023/09/04 03:57:51;;;;;;;0.20;0.20;;;12.20;99.90;;;;;;5093840;28;20059;-62
2023/09/04 04:00:18;;;;;;;0.30;0.30;;;11.80;99.90;;;;;;5093761;28;20052;-61
2023/09/04 04:02:45;;;;;;;0.47;0.30;;;12.00;99.90;;;;;;5093259;28;20089;-61
2023/09/04 04:05:12;;;;;;;0.28;0.28;;;11.90;99.90;;;;;;5093658;28;20087;-61
2023/09/04 04:07:38;;;;;;;0.32;0.32;;;11.70;99.90;;;;;;5093420;28;20127;-62
2023/09/04 04:10:05;;;;;;;0.28;0.28;;;11.90;99.90;;;;;;5093634;28;20051;-61
2023/09/04 04:12:31;;;;;;;0.25;0.25;;;12.00;99.90;;;;;;5093575;28;20056;-61
2023/09/04 04:14:57;;;;;;;0.30;0.30;;;12.00;99.90;;;;;;5093500;28;20492;-61
2023/09/04 04:17:26;;;;;;;0.30;0.30;;;11.60;99.90;;;;;;5093505;28;20048;-61
2023/09/04 04:19:53;;;;;;;0.20;0.20;;;11.80;99.90;;;;;;5093604;28;20172;-61
2023/09/04 04:22:23;;;;;;;0.25;0.25;;;11.70;99.90;;;;;;5093592;28;20040;-61
2023/09/04 04:24:49;;;;;;;0.30;0.30;;;11.60;99.90;;;;;;5093506;28;20054;-61
2023/09/04 04:27:18;;;;;;;;;;;11.80;99.90;;;;;;5093672;28;20084;-61
2023/09/04 04:29:44;;;;;;;0.43;0.22;;;11.80;99.90;;;;;;5093315;28;19965;-61
2023/09/04 04:32:10;;;;;;;0.20;0.20;;;11.40;99.90;;;;;;5093203;28;20047;-61
2023/09/04 04:34:36;;;;;;;0.30;0.30;;;11.90;99.90;;;;;;5093158;28;20059;-61
2023/09/04 04:37:02;;;;;;;0.20;0.20;;;11.40;99.90;;;;;;5093085;28;20392;-61
2023/09/04 04:39:27;;;;;;;0.20;0.20;;;11.40;99.90;;;;;;5093028;28;20480;-61
2023/09/04 04:41:53;;;;;;;0.32;0.32;;;11.40;99.90;;;;;;5092937;28;20484;-63
2023/09/04 04:44:19;;;;;;;0.20;0.20;;;11.50;99.90;;;;;;5092906;28;20048;-61
2023/09/04 04:46:48;;;;;;;0.22;0.22;;;11.30;99.90;;;;;;5092919;28;20043;-61
2023/09/04 04:49:22;;;;;;;0.55;0.52;;;11.50;99.90;;;;;;5092570;28;20056;-61
2023/09/04 04:51:49;;;;;;;0.20;0.20;;;11.40;99.90;;;;;;5092769;28;20047;-61
2023/09/04 04:54:15;;;;;;;0.25;0.25;;;11.50;99.90;;;;;;5092653;28;20052;-62
2023/09/04 04:56:41;;;;;;;0.20;0.20;;;11.60;99.90;;;;;;5092376;28;20465;-61
2023/09/04 04:59:08;;;;;;;0.68;0.68;;;11.70;99.90;;;;;;5092599;28;20135;-61
2023/09/04 05:01:34;;;;;;;0.20;0.20;;;11.70;99.90;;;;;;5092502;28;20492;-61
2023/09/04 05:04:00;;;;;;;0.30;0.30;;;11.60;99.90;;;;;;5092676;28;20059;-62
2023/09/04 05:06:26;;;;;;;0.20;0.20;;;11.80;99.90;;;;;;5092528;28;20052;-61
2023/09/04 05:08:52;;;;;;;0.30;0.30;;;11.50;99.90;;;;;;5092479;28;20073;-61
2023/09/04 05:11:18;;;;;;;0.28;0.28;;;11.60;99.90;;;;;;5091906;28;20047;-62
2023/09/04 05:13:44;;;;;;;0.40;0.40;;;11.30;99.90;;;;;;5092349;28;20052;-61
2023/09/04 05:16:10;;;;;;;0.38;0.38;;;11.40;99.90;;;;;;5092591;28;20043;-61
2023/09/04 05:18:35;;;;;;;0.40;0.40;;;11.40;99.90;;;;;;5092189;28;20123;-61
2023/09/04 05:21:05;;;;;;;1.63;1.52;;;11.70;99.90;;;;;;5092061;28;20499;-61
2023/09/04 05:23:30;;;;;;;0.30;0.30;;;12.00;99.90;;;;;;5091629;28;20051;-61
2023/09/04 05:25:56;;;;;;;0.20;0.20;;;12.10;99.90;;;;;;5091885;28;20040;-61
2023/09/04 05:28:22;;;;;;;0.20;0.20;;;12.00;99.90;;;;;;5081577;28;20051;-61
2023/09/04 05:30:48;;;;;;;0.20;0.20;;;11.90;99.90;;;;;;5089381;28;20048;-62
2023/09/04 05:33:14;;;;;;;0.20;0.20;;;12.30;99.90;;;;;;5091236;28;20090;-62
2023/09/04 05:35:40;;;;;;;2.28;0.60;;;11.80;99.90;;;;;;5091111;28;20048;-61
2023/09/04 05:38:06;;;;;;;;;;;12.50;99.90;;;;;;5091507;28;20036;-61
2023/09/04 05:40:31;;;;;;;0.40;0.40;;;12.50;99.90;;;;;;5091318;28;19943;-61
2023/09/04 05:42:57;;;;;;;0.20;0.20;;;12.20;99.90;;;;;;5088681;28;20036;-61
2023/09/04 05:45:23;;;;;;;0.20;0.20;;;12.10;99.90;;;;;;5089988;28;20083;-61
2023/09/04 05:47:50;;;;;;;0.43;0.43;;;12.20;99.90;;;;;;5089316;28;20511;-62
2023/09/04 05:50:16;;;;;;;0.25;0.25;;;12.60;99.90;;;;;;5090597;28;20055;-61
2023/09/04 05:52:41;;;;;;;;;;;12.70;99.90;;;;;;5092038;28;20051;-61
2023/09/04 05:55:08;;;;;;;0.40;0.40;;;12.60;99.90;;;;;;5091038;28;19920;-61
2023/09/04 05:57:34;;;;;;;0.30;0.30;;;12.50;99.90;;;;;;5091496;28;20047;-61
2023/09/04 06:00:00;;;;;;;0.38;0.38;;;12.80;99.90;;;;;;5091562;28;20048;-61
2023/09/04 06:02:27;;;;;;;0.30;0.30;;;13.00;99.90;;;;;;5091380;28;20140;-61
2023/09/04 06:04:53;;;;;;;0.20;0.20;;;12.90;99.90;;;;;;5091254;28;20075;-61
2023/09/04 06:07:19;;;;;;;0.20;0.20;;;13.00;99.90;;;;;;5091395;28;20040;-61
2023/09/04 06:09:45;;;;;;;0.20;0.20;;;12.90;99.90;;;;;;5091290;28;20059;-61
2023/09/04 06:12:11;;;;;;;0.22;0.22;;;13.20;99.90;;;;;;5089915;28;20063;-61
2023/09/04 06:14:40;;;;;;;0.32;0.32;;;13.30;99.90;;;;;;5091353;28;20048;-62
2023/09/04 06:17:07;;;;;;;0.90;0.43;;;13.30;99.90;;;;;;5091135;28;20048;-61
2023/09/04 06:19:32;;;;;;;;;;;13.40;99.90;;;;;;5091638;28;20511;-62
2023/09/04 06:21:58;;;;;;;0.52;0.52;;;13.50;99.90;;;;;;5091214;28;19959;-61
2023/09/04 06:24:24;;;;;;;0.25;0.25;;;13.40;99.90;;;;;;5084689;28;20067;-61
2023/09/04 06:26:51;;;;;;;0.35;0.35;;;13.40;99.90;;;;;;5095121;28;20047;-61
2023/09/04 06:29:18;;;;;;;0.40;0.40;;;13.60;99.90;;;;;;5093101;28;20055;-62
2023/09/04 06:31:44;;;;;;;0.93;0.70;;;13.70;99.90;;;;;;5094386;28;20095;-61
2023/09/04 06:34:10;;;;;;;0.10;0.10;;;13.90;99.90;;;;;;5094304;28;20122;-61
2023/09/04 06:36:36;;;;;;;0.30;0.30;;;14.10;99.90;;;;;;5094806;28;20087;-61
2023/09/04 06:39:05;;;;;;;0.30;0.30;;;14.10;99.90;;;;;;5093926;28;20136;-61
2023/09/04 06:41:32;;;;;;;0.45;0.45;;;14.00;99.90;;;;;;5094505;28;20048;-62
2023/09/04 06:43:58;;;;;;;0.40;0.40;;;14.20;99.90;;;;;;5094660;28;20119;-61
2023/09/04 06:46:23;;;;;;;0.15;0.15;;;14.00;99.90;;;;;;5094047;28;20433;-61
2023/09/04 06:48:49;;;;;;;0.57;0.57;;;14.10;99.90;;;;;;5094403;28;20043;-62
2023/09/04 06:51:16;;;;;;;0.20;0.20;;;14.20;99.90;;;;;;5092267;28;20052;-61
2023/09/04 06:53:42;;;;;;;0.10;0.10;;;14.50;99.90;;;;;;5093133;28;20058;-62
2023/09/04 06:56:08;;;;;;;0.20;0.20;;;14.70;99.90;;;;;;5093791;28;20102;-62
2023/09/04 06:58:34;;;;;;;0.30;0.30;;;15.10;99.90;;;;;;5094309;28;20066;-61
2023/09/04 07:01:03;;;;;;;;;;;15.20;99.90;;;;;;5093524;28;20056;-62
2023/09/04 07:03:29;;;;;;;0.20;0.20;;;15.20;99.90;;;;;;5094053;28;19967;-62
2023/09/04 07:05:55;;;;;;;0.40;0.40;;;15.50;99.90;;;;;;5094414;28;20064;-63
2023/09/04 07:08:21;;;;;;;0.20;0.20;;;15.50;99.90;;;;;;5094489;28;20128;-62
2023/09/04 07:10:47;;;;;;;;;;;15.50;99.90;;;;;;5095175;28;20083;-62
2023/09/04 07:13:13;;;;;;;0.15;0.15;;;15.70;99.90;;;;;;5094255;28;20019;-62
2023/09/04 07:15:40;;;;;;;;;;;16.00;99.90;;;;;;5094617;28;20055;-62
2023/09/04 07:18:07;;;;;;;0.20;0.20;;;15.90;99.90;;;;;;5094236;28;20009;-63
2023/09/04 07:20:32;;;;;;;0.28;0.28;;;15.90;99.90;;;;;;5094286;28;20123;-62
2023/09/04 07:22:58;;;;;;;0.20;0.20;;;16.10;99.90;;;;;;5093965;28;20127;-62
2023/09/04 07:25:24;;;;;;;;;;;16.60;99.90;;;;;;5094379;28;20040;-62
2023/09/04 07:27:50;;;;;;;0.10;0.10;;;16.40;99.90;;;;;;5093652;28;20425;-62
2023/09/04 07:30:15;;;;;;;;;;;16.60;99.90;;;;;;5094354;28;20043;-62
2023/09/04 07:32:42;;;;;;;0.28;0.28;;;16.70;99.90;;;;;;5094060;28;19943;-62
2023/09/04 07:35:08;;;;;;;0.32;0.32;;;16.80;99.90;;;;;;5093306;28;20048;-62
2023/09/04 07:37:34;;;;;;;0.30;0.30;;;17.00;99.90;;;;;;5093972;28;20077;-63
2023/09/04 07:39:59;;;;;;;;;;;16.90;99.90;;;;;;5094162;28;20047;-64
2023/09/04 07:42:25;;;;;;;0.50;0.43;;;17.10;99.90;;;;;;5093747;28;20287;-63
2023/09/04 07:44:51;;;;;;;;;;;17.30;99.90;;;;;;5094090;28;20096;-62
2023/09/04 07:47:17;;;;;;;0.45;0.45;;;17.30;99.90;;;;;;5093600;28;20409;-64
2023/09/04 07:49:42;;;;;;;;;;;17.60;99.90;;;;;;5093970;28;20046;-62
2023/09/04 07:52:08;;;;;;;0.40;0.40;;;17.70;99.90;;;;;;5093747;28;19928;-63
2023/09/04 07:54:33;;;;;;;;;;;17.80;99.90;;;;;;5093803;28;20135;-62
2023/09/04 07:57:02;;;;;;;0.20;0.20;;;17.80;99.90;;;;;;5093347;28;20264;-64
2023/09/04 07:59:28;;;;;;;0.30;0.30;;;17.90;99.90;;;;;;5093285;28;20126;-62
2023/09/04 08:01:54;;;;;;;2.47;0.75;;;17.80;99.90;;;;;;5092849;28;20047;-62
2023/09/04 08:04:20;;;;;;;;;;;17.90;99.90;;;;;;5093878;28;20551;-62
2023/09/04 08:06:45;;;;;;;0.47;0.47;;;18.20;99.90;;;;;;5092984;28;19950;-62
2023/09/04 08:09:11;;;;;;;;;;;18.30;99.90;;;;;;5093591;28;20059;-62
2023/09/04 08:11:37;;;;;;;0.15;0.15;;;18.60;99.90;;;;;;5093386;28;20010;-62
2023/09/04 08:14:02;;;;;;;;;;;18.70;99.90;;;;;;5093526;28;20044;-62
2023/09/04 08:16:28;;;;;;;0.57;0.32;;;18.70;99.90;;;;;;5093151;28;19946;-62
2023/09/04 08:18:54;;;;;;;;;;;18.70;99.90;;;;;;5093630;28;20048;-63
2023/09/04 08:21:19;;;;;;;0.32;0.28;;;19.20;99.90;;;;;;5092643;28;19928;-62
2023/09/04 08:23:45;;;;;;;0.32;0.28;;;19.10;99.90;;;;;;5092724;28;20067;-62
2023/09/04 08:26:14;;;;;;;0.20;0.20;;;19.00;99.90;;;;;;5092882;28;20044;-62
2023/09/04 08:28:40;;;;;;;0.88;0.50;;;19.20;99.90;;;;;;5092055;28;20150;-62
2023/09/04 08:31:07;;;;;;;0.30;0.30;;;19.30;99.90;;;;;;5092819;28;20051;-63
2023/09/04 08:33:34;;;;;;;0.40;0.40;;;19.40;99.90;;;;;;5092740;28;20072;-62
2023/09/04 08:36:00;;;;;;;0.25;0.25;;;19.40;99.90;;;;;;5092905;28;20440;-62
2023/09/04 08:38:26;;;;;;;0.25;0.25;;;19.50;99.90;;;;;;5093066;28;20134;-63
2023/09/04 08:40:55;;;;;;;0.52;0.52;;;19.80;99.90;;;;;;5091664;28;20048;-63
2023/09/04 08:43:23;;;;;;;0.70;0.55;;;19.60;99.90;;;;;;5092512;28;20092;-62
2023/09/04 08:45:50;;;;;;;0.20;0.20;;;19.90;99.90;;;;;;5092114;28;20066;-62
2023/09/04 08:48:21;;;;;;;0.35;0.35;;;19.80;99.90;;;;;;5092343;28;20055;-63
2023/09/04 08:50:49;;;;;;;0.40;0.40;;;20.10;99.90;;;;;;5092558;28;20044;-63
2023/09/04 08:53:15;;;;;;;0.30;0.30;;;20.00;99.90;;;;;;5092550;28;20040;-62
2023/09/04 08:55:41;;;;;;;1.15;0.38;;;20.20;99.90;;;;;;5092332;28;20404;-62
2023/09/04 08:58:08;;;;;;;0.20;0.20;;;20.20;99.90;;;;;;5092503;28;20043;-63
2023/09/04 09:00:34;;;;;;;0.22;0.22;;;20.20;99.90;;;;;;5092364;28;20048;-63
2023/09/04 09:03:00;;;;;;;0.28;0.28;;;20.30;99.90;;;;;;5092342;28;20063;-63
2023/09/04 09:05:26;;;;;;;0.25;0.25;;;20.50;99.90;;;;;;5092418;28;20134;-62
2023/09/04 09:07:53;;;;;;;0.25;0.25;;;20.60;99.90;;;;;;5092116;28;20052;-63
2023/09/04 09:10:20;;;;;;;0.80;0.73;;;20.60;99.90;;;;;;5091963;28;20130;-62
2023/09/04 09:12:46;;;;;;;0.52;0.47;;;20.60;99.90;;;;;;5091961;28;20040;-62
2023/09/04 09:15:12;;;;;;;0.22;0.22;;;20.80;99.90;;;;;;5092104;28;20078;-62
2023/09/04 09:17:50;;;;;;;0.28;0.28;;;20.90;99.90;;;;;;5091877;28;20087;-63
2023/09/04 09:20:30;;;;;;;0.45;0.45;;;20.90;99.90;;;;;;5091864;28;20048;-62
2023/09/04 09:22:56;;;;;;;0.30;0.30;;;20.80;99.90;;;;;;5092063;28;20408;-61
2023/09/04 09:25:22;;;;;;;0.45;0.32;;;21.00;99.90;;;;;;5091950;28;20055;-63
2023/09/04 09:27:49;;;;;;;0.55;0.55;;;21.20;99.90;;;;;;5092158;28;20048;-62
2023/09/04 09:30:15;;;;;;;0.20;0.20;;;21.30;99.90;;;;;;5092052;28;20047;-62
2023/09/04 09:32:42;;;;;;;0.20;0.20;;;21.20;99.90;;;;;;5092221;28;20044;-62
2023/09/04 09:35:09;;;;;;;0.10;0.10;;;21.20;99.90;;;;;;5092040;28;20476;-62
2023/09/04 09:37:35;;;;;;;1.08;0.90;;;21.80;99.90;;;;;;5092036;28;20050;-62
2023/09/04 09:40:04;;;;;;;1.05;0.98;;;21.50;99.90;;;;;;5090731;28;20051;-62
2023/09/04 09:42:31;;;;;;;0.10;0.10;;;21.50;99.90;;;;;;5091874;28;20044;-63
2023/09/04 09:44:57;;;;;;;0.30;0.30;;;21.60;99.90;;;;;;5091951;28;20048;-62
2023/09/04 09:47:22;;;;;;;0.47;0.47;;;21.80;99.90;;;;;;5091896;28;20048;-62
2023/09/04 09:49:48;;;;;;;0.25;0.25;;;21.50;99.90;;;;;;5091857;28;20054;-63
2023/09/04 09:52:14;;;;;;;0.38;0.30;;;21.90;99.90;;;;;;5091803;28;20082;-61
2023/09/04 09:54:42;;;;;;;0.65;0.65;;;21.90;99.90;;;;;;5091866;28;20055;-62
2023/09/04 09:57:13;;;;;;;0.32;0.32;;;21.90;99.90;;;;;;5091619;28;20393;-62
2023/09/04 09:59:47;;;;;;;0.20;0.20;;;22.30;99.90;;;;;;5091785;28;20083;-63
2023/09/04 10:02:26;;;;;;;0.30;0.30;;;22.30;99.90;;;;;;5091243;28;20059;-62
2023/09/04 10:04:53;;;;;;;0.10;0.10;;;22.40;99.90;;;;;;5091876;28;20551;-62
2023/09/04 10:07:26;;;;;;;0.10;0.10;;;22.20;99.90;;;;;;5091638;28;20048;-62
2023/09/04 10:10:05;;;;;;;0.10;0.10;;;22.00;99.90;;;;;;5091700;28;20087;-62
2023/09/04 10:12:46;;;;;;;0.10;0.10;;;22.10;99.90;;;;;;5091735;28;20434;-62
2023/09/04 10:15:15;;;;;;;0.10;0.10;;;22.20;99.90;;;;;;5091632;28;20094;-62
2023/09/04 10:17:49;;;;;;;0.20;0.20;;;22.30;99.90;;;;;;5090305;28;20055;-62
2023/09/04 10:20:15;;;;;;;0.20;0.20;;;22.50;99.90;;;;;;5090329;28;20135;-61
2023/09/04 10:22:47;;;;;;;0.17;0.17;;;22.30;99.90;;;;;;5090163;28;20147;-62
2023/09/04 10:25:27;;;;;;;0.35;0.35;;;22.60;99.90;;;;;;5091504;28;20059;-62
2023/09/04 10:28:09;;;;;;;0.10;0.10;;;22.70;99.90;;;;;;5091558;28;20051;-64
2023/09/04 10:30:38;;;;;;;0.17;0.17;;;22.70;99.90;;;;;;5091501;28;20463;-62
2023/09/04 10:33:05;;;;;;;0.30;0.30;;;22.80;99.90;;;;;;5091410;28;20079;-62
2023/09/04 10:35:32;;;;;;;2.10;0.30;;;22.90;99.90;;;;;;5091430;28;20453;-62
2023/09/04 10:37:58;;;;;;;0.30;0.30;;;23.00;99.90;;;;;;5091411;28;20048;-62
2023/09/04 10:40:24;;;;;;;0.10;0.10;;;22.90;99.90;;;;;;5091376;28;20044;-63
2023/09/04 10:42:50;;;;;;;0.40;0.40;;;23.20;99.90;;;;;;5090019;28;20105;-62
2023/09/04 10:45:18;;;;;;;0.08;0.08;;;23.10;99.90;;;;;;5091569;28;20044;-62
2023/09/04 10:47:49;;;;;;;0.20;0.20;;;23.40;99.90;;;;;;5091328;28;20040;-62
2023/09/04 10:50:35;;;;;;;0.13;0.13;;;23.30;99.90;;;;;;5090025;28;20514;-62
2023/09/04 10:53:02;;;;;;;1.67;0.30;;;23.30;99.90;;;;;;5091439;28;20084;-62
2023/09/04 10:55:29;;;;;;;0.10;0.10;;;23.60;99.90;;;;;;5091319;28;20040;-63
2023/09/04 10:58:03;;;;;;;0.40;0.30;;;23.60;99.90;;;;;;5091344;28;20052;-62
2023/09/04 11:00:36;;;;;;;0.10;0.10;;;23.40;99.90;;;;;;5091212;28;20565;-62
2023/09/04 11:03:15;;;;;;;0.10;0.10;;;23.60;99.90;;;;;;5090831;28;20135;-61
2023/09/04 11:06:05;;;;;;;0.30;0.20;;;23.60;99.90;;;;;;5091194;28;20056;-62
2023/09/04 11:08:33;;;;;;;0.10;0.10;;;23.80;99.90;;;;;;5091115;28;20051;-62
2023/09/04 11:11:03;;;;;;;0.13;0.13;;;23.70;99.90;;;;;;5094182;28;20055;-62
2023/09/04 11:13:33;;;;;;;0.15;0.15;;;24.00;99.90;;;;;;5094706;28;20109;-62
2023/09/04 11:16:03;;;;;;;0.22;0.22;;;24.00;99.90;;;;;;5094723;28;20078;-62
2023/09/04 11:18:30;;;;;;;0.17;0.17;;;24.20;99.90;;;;;;5093440;28;20578;-62
2023/09/04 11:20:56;;;;;;;0.25;0.25;;;24.10;99.90;;;;;;5094596;28;20044;-62
2023/09/04 11:23:25;;;;;;;0.00;0.00;;;23.80;99.90;;;;;;5094131;28;20500;-62
2023/09/04 11:25:52;;;;;;;0.10;0.10;;;24.20;99.90;;;;;;5094503;28;20051;-62
2023/09/04 11:28:28;;;;;;;0.30;0.30;;;24.20;99.90;;;;;;5094437;28;20056;-63
2023/09/04 11:30:58;;;;;;;0.40;0.40;;;23.80;99.90;;;;;;5094438;28;20052;-62
2023/09/04 11:33:29;;;;;;;0.00;0.00;;;24.10;99.90;;;;;;5094469;28;20373;-62
2023/09/04 11:36:05;;;;;;;0.25;0.22;;;24.00;99.90;;;;;;5094291;28;20537;-63
2023/09/04 11:38:33;;;;;;;0.20;0.20;;;23.90;99.90;;;;;;5094268;28;20130;-61
2023/09/04 11:40:59;;;;;;;0.20;0.10;;;24.00;99.90;;;;;;5093146;28;20505;-62
2023/09/04 11:43:27;;;;;;;0.32;0.32;;;23.80;99.90;;;;;;5094087;28;20079;-62
2023/09/04 11:45:57;;;;;;;0.30;0.30;;;24.30;99.90;;;;;;5094122;28;20063;-62
2023/09/04 11:48:27;;;;;;;0.20;0.20;;;24.20;99.90;;;;;;5094060;28;20055;-62
2023/09/04 11:50:54;;;;;;;0.30;0.30;;;24.50;99.90;;;;;;5094134;28;20058;-62
2023/09/04 11:53:21;;;;;;;0.40;0.30;;;24.70;99.90;;;;;;5094033;28;20051;-62
2023/09/04 11:55:47;;;;;;;0.15;0.15;;;24.70;99.90;;;;;;5093531;28;20560;-62
2023/09/04 11:58:13;;;;;;;0.10;0.10;;;24.80;99.90;;;;;;5093906;28;20051;-64
2023/09/04 12:00:41;;;;;;;0.20;0.20;;;24.60;99.90;;;;;;5093874;28;20391;-62
2023/09/04 12:03:07;;;;;;;0.05;0.05;;;24.40;99.90;;;;;;5093545;28;20147;-64
2023/09/04 12:05:35;;;;;;;0.25;0.20;;;24.40;99.90;;;;;;5094024;28;20452;-62
2023/09/04 12:08:04;;;;;;;0.30;0.30;;;24.60;99.90;;;;;;5093710;28;20109;-62
2023/09/04 12:10:33;;;;;;;0.22;0.22;;;25.00;99.90;;;;;;5093365;28;20480;-62
2023/09/04 12:12:58;;;;;;;0.20;0.20;;;24.80;99.90;;;;;;5093536;28;20048;-62
2023/09/04 12:15:26;;;;;;;0.32;0.32;;;24.80;99.90;;;;;;5093533;28;20052;-63
2023/09/04 12:17:51;;;;;;;0.30;0.30;;;24.90;99.90;;;;;;5093529;28;20472;-62
2023/09/04 12:20:17;;;;;;;0.45;0.35;;;24.70;99.90;;;;;;5093473;28;20131;-62
2023/09/04 12:22:56;;;;;;;0.20;0.20;;;24.80;99.90;;;;;;5093357;28;20454;-63
2023/09/04 12:25:25;;;;;;;0.13;0.10;;;24.30;99.90;;;;;;5093458;28;20097;-62
2023/09/04 12:27:51;;;;;;;0.20;0.20;;;24.80;99.90;;;;;;5093333;28;20070;-62
2023/09/04 12:30:17;;;;;;;0.28;0.28;;;24.60;99.90;;;;;;5093264;28;20044;-62
2023/09/04 12:32:43;;;;;;;0.10;0.10;;;24.60;99.90;;;;;;5092931;28;20125;-62
2023/09/04 12:35:09;;;;;;;0.30;0.30;;;24.50;99.90;;;;;;5093193;28;20052;-63
2023/09/04 12:37:36;;;;;;;0.28;0.28;;;24.80;99.90;;;;;;5092835;28;20403;-63
2023/09/04 12:40:03;;;;;;;0.10;0.10;;;24.90;99.90;;;;;;5093072;28;20051;-62
2023/09/04 12:42:29;;;;;;;0.30;0.30;;;24.90;99.90;;;;;;5093006;28;20052;-62
2023/09/04 12:44:55;;;;;;;0.00;0.00;;;25.00;99.90;;;;;;5093052;28;20091;-63
2023/09/04 12:47:23;;;;;;;0.17;0.17;;;24.70;99.90;;;;;;5093047;28;20192;-62
2023/09/04 12:49:49;;;;;;;0.15;0.15;;;25.00;99.90;;;;;;5092949;28;20169;-62
2023/09/04 12:52:15;;;;;;;0.30;0.30;;;25.10;99.90;;;;;;5093284;28;20116;-62
2023/09/04 12:54:40;;;;;;;0.20;0.20;;;25.30;99.90;;;;;;5092320;28;20084;-62
2023/09/04 12:57:06;;;;;;;0.10;0.10;;;25.10;99.90;;;;;;5093133;28;20044;-62